Time;durP1;ratioP1;P1;durP2;ratioP2;P2;SDS_P1;SDS_P2;PMS_P1;PMS_P2;Temp;Humidity;BMP_temperature;BMP_pressure;BME280_temperature;BME280_humidity;BME280_pressure;Samples;Min_cycle;Max_cycle;Signal;HPM_P1;HPM_P2
2020/12/31 00:01:26;;;;;;;17.93;7.80;;;3.80;99.90;;;;;;5063827;28;20453;-74
2020/12/31 00:03:53;;;;;;;12.53;5.50;;;3.80;99.90;;;;;;5092482;28;20467;-71
2020/12/31 00:06:19;;;;;;;10.77;6.10;;;3.80;99.90;;;;;;5074252;28;20464;-70
2020/12/31 00:08:45;;;;;;;8.73;6.27;;;3.80;99.90;;;;;;5072324;28;20502;-70
2020/12/31 00:11:12;;;;;;;6.90;4.63;;;3.80;99.90;;;;;;5078840;28;20456;-71
2020/12/31 00:13:38;;;;;;;12.37;6.47;;;3.80;99.90;;;;;;5090952;28;20219;-70
2020/12/31 00:16:04;;;;;;;14.17;7.17;;;3.80;99.90;;;;;;5075396;28;21020;-71
2020/12/31 00:18:30;;;;;;;8.87;5.77;;;3.80;99.90;;;;;;5087905;28;20449;-71
2020/12/31 00:20:56;;;;;;;10.33;5.80;;;3.90;99.90;;;;;;5074867;28;20482;-70
2020/12/31 00:23:22;;;;;;;10.07;6.30;;;3.90;99.90;;;;;;5079971;27;20213;-71
2020/12/31 00:25:52;;;;;;;8.97;5.50;;;3.90;99.90;;;;;;5102001;28;20210;-71
2020/12/31 00:28:19;;;;;;;17.03;6.50;;;3.90;99.90;;;;;;5074597;28;20225;-70
2020/12/31 00:30:46;;;;;;;10.77;5.70;;;3.90;99.90;;;;;;5091445;28;20478;-72
2020/12/31 00:33:15;;;;;;;11.47;7.40;;;3.90;99.90;;;;;;5064945;28;21041;-71
2020/12/31 00:35:43;;;;;;;12.03;7.67;;;3.90;99.90;;;;;;5074152;28;20481;-72
2020/12/31 00:38:08;;;;;;;12.67;6.17;;;3.90;99.90;;;;;;5075145;28;20569;-71
2020/12/31 00:40:34;;;;;;;11.17;6.70;;;3.90;99.90;;;;;;5070158;28;20480;-71
2020/12/31 00:43:00;;;;;;;11.27;6.70;;;3.90;99.90;;;;;;5071232;28;20211;-71
2020/12/31 00:45:27;;;;;;;11.63;7.13;;;3.90;99.90;;;;;;5090046;28;20226;-71
2020/12/31 00:47:53;;;;;;;17.50;8.07;;;3.90;99.90;;;;;;5094949;28;20834;-71
2020/12/31 00:50:19;;;;;;;10.30;7.07;;;3.90;99.90;;;;;;5074751;28;20460;-71
2020/12/31 00:52:45;;;;;;;14.57;8.47;;;3.90;99.90;;;;;;5058397;28;20465;-71
2020/12/31 00:55:12;;;;;;;14.50;6.73;;;3.90;99.90;;;;;;5069925;28;20575;-71
2020/12/31 00:57:38;;;;;;;12.47;7.00;;;3.90;99.90;;;;;;5070678;28;20522;-72
2020/12/31 01:00:05;;;;;;;14.47;6.50;;;3.90;99.90;;;;;;5091961;28;20500;-71
2020/12/31 01:02:36;;;;;;;19.77;8.50;;;3.90;99.90;;;;;;5080290;28;20543;-73
2020/12/31 01:05:04;;;;;;;17.87;8.77;;;3.90;99.90;;;;;;5085145;28;20543;-71
2020/12/31 01:07:30;;;;;;;16.93;6.53;;;3.90;99.90;;;;;;5091506;28;20317;-71
2020/12/31 01:09:56;;;;;;;12.80;6.87;;;4.00;99.90;;;;;;5074470;28;20531;-71
2020/12/31 01:12:21;;;;;;;10.80;6.90;;;4.00;99.90;;;;;;5074369;28;20312;-71
2020/12/31 01:14:47;;;;;;;9.23;4.97;;;4.00;99.90;;;;;;5074178;28;20230;-71
2020/12/31 01:17:13;;;;;;;12.97;6.67;;;3.90;99.90;;;;;;5071477;28;20221;-71
2020/12/31 01:19:38;;;;;;;8.90;5.30;;;3.90;99.90;;;;;;5073863;28;20295;-71
2020/12/31 01:22:04;;;;;;;9.30;6.17;;;3.90;99.90;;;;;;5057695;28;20297;-70
2020/12/31 01:24:29;;;;;;;8.90;5.60;;;3.90;99.90;;;;;;5065144;28;20227;-70
2020/12/31 01:26:55;;;;;;;11.63;5.90;;;3.80;99.90;;;;;;5067938;28;20234;-71
2020/12/31 01:29:21;;;;;;;11.50;6.07;;;3.80;99.90;;;;;;5095308;28;20274;-71
2020/12/31 01:31:48;;;;;;;13.20;7.10;;;3.80;99.90;;;;;;5085022;28;20235;-71
2020/12/31 01:34:14;;;;;;;14.33;7.00;;;3.80;99.90;;;;;;5081952;28;20690;-71
2020/12/31 01:36:40;;;;;;;11.83;6.23;;;3.80;99.90;;;;;;5073277;28;20490;-71
2020/12/31 01:39:05;;;;;;;12.30;6.70;;;3.90;99.90;;;;;;5064333;27;20866;-71
2020/12/31 01:41:31;;;;;;;11.93;6.30;;;3.90;99.90;;;;;;5068806;28;20249;-72
2020/12/31 01:44:02;;;;;;;17.80;8.43;;;3.90;99.90;;;;;;5075937;28;20223;-71
2020/12/31 01:46:32;;;;;;;35.10;14.70;;;3.90;99.90;;;;;;5088783;27;20229;-71
2020/12/31 01:48:58;;;;;;;31.90;15.40;;;3.90;99.90;;;;;;5080256;28;20452;-71
2020/12/31 01:51:24;;;;;;;26.93;13.03;;;3.90;99.90;;;;;;5091432;28;20868;-70
2020/12/31 01:53:56;;;;;;;25.60;12.77;;;3.90;99.90;;;;;;5081826;28;20449;-71
2020/12/31 01:56:29;;;;;;;27.17;12.40;;;3.90;99.90;;;;;;5077223;28;20444;-71
2020/12/31 01:58:56;;;;;;;28.30;12.63;;;3.90;99.90;;;;;;5113174;28;20517;-70
2020/12/31 02:01:22;;;;;;;17.07;8.57;;;3.90;99.90;;;;;;5076804;28;20459;-71
2020/12/31 02:03:49;;;;;;;26.13;11.47;;;3.90;99.90;;;;;;5077876;28;20569;-71
2020/12/31 02:06:15;;;;;;;28.00;12.70;;;3.90;99.90;;;;;;5078091;28;20518;-71
2020/12/31 02:08:44;;;;;;;45.43;18.27;;;3.90;99.90;;;;;;5094416;28;20464;-72
2020/12/31 02:11:11;;;;;;;53.20;19.93;;;4.00;99.90;;;;;;5094823;28;20463;-71
2020/12/31 02:13:36;;;;;;;108.43;31.47;;;3.90;99.90;;;;;;5058341;28;20528;-74
2020/12/31 02:16:02;;;;;;;75.17;28.80;;;3.90;99.90;;;;;;5078723;27;21061;-71
2020/12/31 02:18:28;;;;;;;64.50;27.10;;;3.90;99.90;;;;;;5060575;28;20214;-71
2020/12/31 02:20:55;;;;;;;74.93;29.87;;;3.90;99.90;;;;;;5074221;28;20464;-71
2020/12/31 02:23:21;;;;;;;67.33;27.60;;;3.90;99.90;;;;;;5083833;28;20222;-71
2020/12/31 02:25:47;;;;;;;79.47;27.97;;;3.90;99.90;;;;;;5091703;28;20452;-70
2020/12/31 02:28:12;;;;;;;50.93;21.53;;;3.90;99.90;;;;;;5069625;28;20991;-71
2020/12/31 02:30:38;;;;;;;45.13;17.43;;;3.80;99.90;;;;;;5070287;27;20592;-73
2020/12/31 02:33:04;;;;;;;27.23;12.73;;;3.80;99.90;;;;;;5064029;28;20298;-71
2020/12/31 02:35:29;;;;;;;28.93;11.57;;;3.80;99.90;;;;;;5043786;28;20230;-70
2020/12/31 02:37:55;;;;;;;17.30;9.37;;;3.80;99.90;;;;;;5060948;28;20227;-72
2020/12/31 02:40:20;;;;;;;14.70;8.13;;;3.80;99.90;;;;;;5060045;28;20241;-71
2020/12/31 02:42:46;;;;;;;13.03;6.37;;;3.80;99.90;;;;;;5070790;28;20223;-70
2020/12/31 02:45:12;;;;;;;9.97;6.73;;;3.80;99.90;;;;;;5075482;28;20291;-71
2020/12/31 02:47:39;;;;;;;10.00;5.30;;;3.80;99.90;;;;;;5080565;28;20238;-71
2020/12/31 02:50:05;;;;;;;9.40;5.80;;;3.80;99.90;;;;;;5094136;28;20218;-71
2020/12/31 02:52:31;;;;;;;11.50;5.77;;;3.80;99.90;;;;;;5073612;28;20487;-71
2020/12/31 02:54:56;;;;;;;11.17;5.63;;;3.80;99.90;;;;;;5068933;28;20295;-71
2020/12/31 02:57:22;;;;;;;10.33;5.90;;;3.70;99.90;;;;;;5075269;28;20264;-70
2020/12/31 02:59:48;;;;;;;12.77;5.67;;;3.80;99.90;;;;;;5068101;28;20295;-71
2020/12/31 03:02:13;;;;;;;8.93;5.23;;;3.70;99.90;;;;;;5099578;28;20245;-70
2020/12/31 03:04:39;;;;;;;10.20;5.20;;;3.70;99.90;;;;;;5071942;28;20279;-70
2020/12/31 03:07:04;;;;;;;11.90;5.40;;;3.70;99.90;;;;;;5076646;28;20226;-70
2020/12/31 03:09:30;;;;;;;7.80;4.40;;;3.70;99.90;;;;;;5058885;28;20752;-71
2020/12/31 03:11:56;;;;;;;10.43;5.00;;;3.70;99.90;;;;;;5060395;28;20638;-70
2020/12/31 03:14:21;;;;;;;10.50;5.20;;;3.70;99.90;;;;;;5069645;28;20215;-71
2020/12/31 03:16:47;;;;;;;7.57;4.33;;;3.70;99.90;;;;;;5065555;28;20280;-71
2020/12/31 03:19:13;;;;;;;9.13;4.90;;;3.80;99.90;;;;;;5073196;28;20277;-71
2020/12/31 03:21:38;;;;;;;8.40;4.70;;;3.80;99.90;;;;;;5075967;28;20237;-72
2020/12/31 03:24:04;;;;;;;8.50;5.37;;;3.80;99.90;;;;;;5056867;28;20226;-73
2020/12/31 03:26:29;;;;;;;9.20;6.10;;;3.80;99.90;;;;;;5092699;28;20241;-73
2020/12/31 03:28:55;;;;;;;9.80;5.40;;;3.80;99.90;;;;;;5053969;28;20242;-72
2020/12/31 03:31:21;;;;;;;13.53;5.97;;;3.70;99.90;;;;;;5080633;28;20293;-72
2020/12/31 03:33:46;;;;;;;7.03;5.13;;;3.70;99.90;;;;;;5076027;28;20244;-73
2020/12/31 03:36:12;;;;;;;7.30;5.10;;;3.80;99.90;;;;;;5059706;28;20463;-72
2020/12/31 03:38:38;;;;;;;7.20;5.00;;;3.80;99.90;;;;;;5072340;28;20238;-72
2020/12/31 03:41:03;;;;;;;9.13;5.07;;;3.80;99.90;;;;;;5075568;28;20222;-70
2020/12/31 03:43:29;;;;;;;8.83;4.70;;;3.80;99.90;;;;;;5047104;28;20309;-72
2020/12/31 03:45:54;;;;;;;11.70;5.33;;;3.80;99.90;;;;;;5065318;28;20238;-72
2020/12/31 03:48:20;;;;;;;9.07;4.80;;;3.70;99.90;;;;;;5102701;28;20320;-73
2020/12/31 03:50:46;;;;;;;5.90;4.10;;;3.70;99.90;;;;;;5083853;28;20239;-72
2020/12/31 03:53:11;;;;;;;8.93;4.80;;;3.70;99.90;;;;;;5067631;28;20228;-73
2020/12/31 03:55:38;;;;;;;10.20;4.80;;;3.70;99.90;;;;;;5076234;28;20218;-73
2020/12/31 03:58:04;;;;;;;6.07;4.67;;;3.60;99.90;;;;;;5099282;28;20214;-72
2020/12/31 04:00:29;;;;;;;12.30;5.43;;;3.60;99.90;;;;;;5085660;28;20825;-70
2020/12/31 04:02:55;;;;;;;11.30;4.80;;;3.60;99.90;;;;;;5081521;28;20226;-73
2020/12/31 04:05:21;;;;;;;10.30;5.13;;;3.60;99.90;;;;;;5057032;28;20226;-73
2020/12/31 04:07:47;;;;;;;10.47;5.27;;;3.60;99.90;;;;;;5087951;28;20250;-73
2020/12/31 04:10:12;;;;;;;5.93;4.00;;;3.60;99.90;;;;;;5085467;28;20255;-73
2020/12/31 04:12:38;;;;;;;8.67;4.43;;;3.60;99.90;;;;;;5046962;28;20222;-73
2020/12/31 04:15:04;;;;;;;8.23;4.73;;;3.60;99.90;;;;;;5057687;28;20218;-71
2020/12/31 04:17:30;;;;;;;5.70;3.60;;;3.60;99.90;;;;;;5085600;28;20248;-73
2020/12/31 04:19:56;;;;;;;6.77;4.57;;;3.60;99.90;;;;;;5102095;28;20218;-71
2020/12/31 04:22:21;;;;;;;7.10;4.13;;;3.70;99.90;;;;;;5067723;28;20447;-71
2020/12/31 04:24:47;;;;;;;4.70;3.47;;;3.70;99.90;;;;;;5088524;28;20294;-70
2020/12/31 04:27:13;;;;;;;8.07;3.60;;;3.70;99.90;;;;;;5089476;28;20231;-71
2020/12/31 04:29:39;;;;;;;5.90;3.80;;;3.60;99.90;;;;;;5092176;28;20700;-70
2020/12/31 04:32:05;;;;;;;4.47;3.50;;;3.70;99.90;;;;;;5058842;28;20769;-70
2020/12/31 04:34:31;;;;;;;7.67;3.67;;;3.60;99.90;;;;;;5077641;27;20538;-71
2020/12/31 04:36:56;;;;;;;5.40;3.17;;;3.70;99.90;;;;;;5079252;28;20217;-70
2020/12/31 04:39:22;;;;;;;6.80;4.30;;;3.70;99.90;;;;;;5075003;28;20225;-71
2020/12/31 04:41:48;;;;;;;8.10;3.90;;;3.70;99.90;;;;;;5073399;28;20215;-71
2020/12/31 04:44:15;;;;;;;7.03;3.93;;;3.70;99.90;;;;;;5073638;28;20249;-70
2020/12/31 04:46:42;;;;;;;5.00;3.43;;;3.70;99.90;;;;;;5081653;28;20692;-70
2020/12/31 04:49:19;;;;;;;8.67;4.00;;;3.70;99.90;;;;;;5041910;28;20473;-71
2020/12/31 04:51:47;;;;;;;7.67;3.50;;;3.70;99.90;;;;;;5080640;28;21019;-71
2020/12/31 04:54:13;;;;;;;5.07;3.50;;;3.70;99.90;;;;;;5088370;28;20495;-71
2020/12/31 04:56:39;;;;;;;5.90;3.60;;;3.70;99.90;;;;;;5075009;28;20475;-70
2020/12/31 04:59:07;;;;;;;3.43;2.90;;;3.70;99.90;;;;;;5072792;28;20215;-71
2020/12/31 05:01:33;;;;;;;7.10;3.23;;;3.70;99.90;;;;;;5092444;28;20221;-71
2020/12/31 05:03:59;;;;;;;5.37;3.40;;;3.70;99.90;;;;;;5074415;28;20468;-71
2020/12/31 05:06:26;;;;;;;4.30;2.60;;;3.70;99.90;;;;;;5073828;28;20459;-71
2020/12/31 05:08:52;;;;;;;4.40;3.50;;;3.70;99.90;;;;;;5096159;28;20289;-71
2020/12/31 05:11:18;;;;;;;5.23;3.43;;;3.70;99.90;;;;;;5084559;28;20975;-70
2020/12/31 05:13:48;;;;;;;5.50;3.17;;;3.70;99.90;;;;;;5095823;28;20224;-71
2020/12/31 05:16:14;;;;;;;5.30;2.80;;;3.80;99.90;;;;;;5078911;28;20459;-70
2020/12/31 05:18:40;;;;;;;6.27;3.10;;;3.80;99.90;;;;;;5070733;28;20448;-70
2020/12/31 05:21:16;;;;;;;4.80;3.07;;;3.80;99.90;;;;;;5079105;28;20460;-70
2020/12/31 05:23:44;;;;;;;4.30;2.70;;;3.80;99.90;;;;;;5062196;28;20210;-71
2020/12/31 05:26:11;;;;;;;4.27;2.77;;;3.80;99.90;;;;;;5072094;28;20523;-71
2020/12/31 05:28:37;;;;;;;6.57;3.33;;;3.80;99.90;;;;;;5095077;28;20452;-71
2020/12/31 05:31:08;;;;;;;5.20;3.73;;;3.80;99.90;;;;;;5075161;28;20987;-71
2020/12/31 05:33:35;;;;;;;6.40;4.10;;;3.80;99.90;;;;;;5091731;28;20551;-70
2020/12/31 05:36:24;;;;;;;8.53;4.30;;;3.80;99.90;;;;;;5078827;28;20449;-72
2020/12/31 05:39:00;;;;;;;8.93;4.80;;;3.80;99.90;;;;;;5083877;27;20457;-71
2020/12/31 05:41:37;;;;;;;11.47;5.73;;;3.80;99.90;;;;;;5095351;28;20533;-74
2020/12/31 05:44:07;;;;;;;11.53;6.30;;;3.80;99.90;;;;;;5104032;28;20447;-70
2020/12/31 05:46:37;;;;;;;8.70;4.70;;;3.80;99.90;;;;;;5095346;28;20489;-70
2020/12/31 05:49:08;;;;;;;9.83;5.60;;;3.80;99.90;;;;;;5088691;27;20956;-71
2020/12/31 05:51:41;;;;;;;7.17;3.80;;;3.80;99.90;;;;;;5099025;27;20900;-70
2020/12/31 05:54:12;;;;;;;7.20;3.10;;;3.80;99.90;;;;;;5115858;27;20455;-71
2020/12/31 05:56:39;;;;;;;6.10;4.10;;;3.80;99.90;;;;;;5080952;28;20469;-71
2020/12/31 05:59:23;;;;;;;5.53;3.73;;;3.80;99.90;;;;;;5091180;28;20459;-71
2020/12/31 06:02:00;;;;;;;3.77;2.87;;;3.80;99.90;;;;;;5073884;28;20459;-71
2020/12/31 06:04:31;;;;;;;3.93;2.93;;;3.70;99.90;;;;;;5087212;28;20462;-70
2020/12/31 06:07:03;;;;;;;4.73;3.23;;;3.80;99.90;;;;;;5095283;28;20573;-70
2020/12/31 06:09:30;;;;;;;4.07;3.00;;;3.70;99.90;;;;;;5068009;28;20449;-71
2020/12/31 06:12:01;;;;;;;4.23;2.73;;;3.70;99.90;;;;;;5095476;28;20440;-70
2020/12/31 06:14:28;;;;;;;2.67;2.40;;;3.70;99.90;;;;;;5095045;28;20458;-71
2020/12/31 06:16:59;;;;;;;5.77;3.70;;;3.70;99.90;;;;;;5078627;28;20450;-71
2020/12/31 06:19:29;;;;;;;4.00;2.90;;;3.70;99.90;;;;;;5102826;28;20462;-70
2020/12/31 06:22:11;;;;;;;7.40;3.50;;;3.70;99.90;;;;;;5077266;28;20443;-71
2020/12/31 06:24:39;;;;;;;4.60;2.50;;;3.60;99.90;;;;;;5094610;28;20456;-71
2020/12/31 06:27:10;;;;;;;5.00;3.20;;;3.70;99.90;;;;;;5077825;28;20467;-71
2020/12/31 06:29:47;;;;;;;4.13;3.37;;;3.70;99.90;;;;;;5094685;28;20467;-71
2020/12/31 06:32:32;;;;;;;6.30;3.53;;;3.60;99.90;;;;;;5091156;27;20454;-70
2020/12/31 06:35:03;;;;;;;5.80;3.43;;;3.60;99.90;;;;;;5097808;27;20507;-71
2020/12/31 06:37:29;;;;;;;7.77;4.17;;;3.60;99.90;;;;;;5082741;28;20444;-71
2020/12/31 06:40:21;;;;;;;5.63;3.70;;;3.60;99.90;;;;;;5077799;28;20484;-70
2020/12/31 06:43:06;;;;;;;4.23;3.27;;;3.60;99.90;;;;;;5069212;28;20451;-71
2020/12/31 06:45:50;;;;;;;7.13;3.67;;;3.60;99.90;;;;;;5090833;28;20490;-71
2020/12/31 06:48:25;;;;;;;8.03;4.60;;;3.60;99.90;;;;;;5058728;28;20556;-70
2020/12/31 06:51:11;;;;;;;6.37;3.77;;;3.70;99.90;;;;;;5094020;28;20451;-71
2020/12/31 06:53:44;;;;;;;5.70;4.13;;;3.70;99.90;;;;;;5076834;28;20820;-72
2020/12/31 06:56:12;;;;;;;5.90;4.00;;;3.70;99.90;;;;;;5078299;27;20464;-71
2020/12/31 06:58:39;;;;;;;7.80;3.80;;;3.70;99.90;;;;;;5114494;27;20462;-70
2020/12/31 07:01:28;;;;;;;6.37;4.30;;;3.70;99.90;;;;;;5097536;27;20482;-71
2020/12/31 07:03:55;;;;;;;4.27;2.83;;;3.70;99.90;;;;;;5062124;28;20452;-71
2020/12/31 07:06:21;;;;;;;3.90;3.10;;;3.70;99.90;;;;;;5094976;28;20455;-70
2020/12/31 07:09:16;;;;;;;3.03;2.63;;;3.70;99.90;;;;;;5073671;28;20816;-72
2020/12/31 07:11:42;;;;;;;4.40;3.23;;;3.70;99.90;;;;;;5078615;28;20239;-71
2020/12/31 07:14:23;;;;;;;6.00;4.43;;;3.70;99.90;;;;;;5047594;28;20459;-70
2020/12/31 07:16:55;;;;;;;4.50;3.70;;;3.70;99.90;;;;;;5057411;28;20218;-71
2020/12/31 07:19:45;;;;;;;6.23;3.70;;;3.70;99.90;;;;;;5075867;28;20441;-71
2020/12/31 07:22:10;;;;;;;4.00;2.93;;;3.70;99.90;;;;;;5073058;28;20453;-70
2020/12/31 07:25:12;;;;;;;5.33;3.43;;;3.70;99.90;;;;;;5073197;28;20454;-71
2020/12/31 07:27:43;;;;;;;7.37;3.13;;;3.70;99.90;;;;;;5087303;28;20230;-71
2020/12/31 07:30:08;;;;;;;6.50;4.30;;;3.70;99.90;;;;;;5093512;28;20448;-71
2020/12/31 07:32:50;;;;;;;6.47;3.63;;;3.70;99.90;;;;;;5109561;28;20452;-72
2020/12/31 07:35:42;;;;;;;5.70;4.00;;;3.70;99.90;;;;;;5093664;28;20229;-70
2020/12/31 07:38:08;;;;;;;6.67;3.33;;;3.70;99.90;;;;;;5082870;28;20465;-71
2020/12/31 07:40:51;;;;;;;4.60;3.80;;;3.70;99.90;;;;;;5056595;28;20503;-70
2020/12/31 07:43:18;;;;;;;5.73;3.50;;;3.70;99.90;;;;;;5084686;27;20505;-71
2020/12/31 07:45:47;;;;;;;4.50;3.03;;;3.60;99.90;;;;;;5096257;27;20819;-71
2020/12/31 07:48:13;;;;;;;5.43;3.47;;;3.60;99.90;;;;;;5068288;28;20510;-71
2020/12/31 07:50:39;;;;;;;5.67;3.60;;;3.60;99.90;;;;;;5058544;28;20453;-70
2020/12/31 07:53:04;;;;;;;8.07;4.67;;;3.60;99.90;;;;;;5059397;28;20466;-71
2020/12/31 07:55:32;;;;;;;7.83;4.73;;;3.60;99.90;;;;;;5092620;28;20348;-70
2020/12/31 07:57:58;;;;;;;7.50;4.40;;;3.60;99.90;;;;;;5075655;28;20217;-71
2020/12/31 08:00:23;;;;;;;10.50;5.87;;;3.60;99.90;;;;;;5092604;28;20456;-71
2020/12/31 08:02:51;;;;;;;9.30;4.87;;;3.60;99.90;;;;;;5091704;28;20223;-71
2020/12/31 08:05:22;;;;;;;6.93;5.50;;;3.60;99.90;;;;;;5068824;28;20602;-71
2020/12/31 08:07:55;;;;;;;11.07;5.00;;;3.60;99.90;;;;;;5085861;28;20588;-71
2020/12/31 08:10:21;;;;;;;8.57;5.80;;;3.60;99.90;;;;;;5092725;28;20540;-71
2020/12/31 08:12:55;;;;;;;9.60;4.60;;;3.60;99.90;;;;;;5076047;28;20456;-71
2020/12/31 08:15:22;;;;;;;8.67;4.90;;;3.60;99.90;;;;;;5054965;28;20495;-70
2020/12/31 08:17:53;;;;;;;8.50;5.07;;;3.50;99.90;;;;;;5072480;28;20450;-71
2020/12/31 08:20:21;;;;;;;6.13;4.80;;;3.60;99.90;;;;;;5058378;28;20452;-70
2020/12/31 08:22:58;;;;;;;5.40;4.33;;;3.50;99.90;;;;;;5075267;28;20460;-71
2020/12/31 08:25:26;;;;;;;6.70;4.43;;;3.60;99.90;;;;;;5096282;27;20590;-70
2020/12/31 08:27:56;;;;;;;8.70;5.00;;;3.50;99.90;;;;;;5095627;27;20478;-71
2020/12/31 08:30:23;;;;;;;8.47;4.50;;;3.50;99.90;;;;;;5098804;28;20539;-71
2020/12/31 08:32:55;;;;;;;6.93;4.30;;;3.50;99.90;;;;;;5076117;28;20510;-70
2020/12/31 08:35:31;;;;;;;6.37;4.80;;;3.50;99.90;;;;;;5075385;28;20456;-71
2020/12/31 08:38:05;;;;;;;5.37;4.43;;;3.50;99.90;;;;;;5075653;27;20456;-71
2020/12/31 08:40:32;;;;;;;6.07;4.83;;;3.60;99.90;;;;;;5073510;28;20463;-71
2020/12/31 08:42:58;;;;;;;6.17;5.30;;;3.60;99.90;;;;;;5086458;28;20450;-70
2020/12/31 08:45:30;;;;;;;9.13;5.90;;;3.60;99.90;;;;;;5064575;28;20464;-71
2020/12/31 08:48:08;;;;;;;9.03;5.73;;;3.60;99.90;;;;;;5089464;28;20475;-70
2020/12/31 08:50:34;;;;;;;6.30;4.43;;;3.60;99.90;;;;;;5092809;28;20458;-70
2020/12/31 08:53:03;;;;;;;8.80;5.17;;;3.60;99.90;;;;;;5057875;28;20817;-70
2020/12/31 08:55:29;;;;;;;7.37;4.93;;;3.60;99.90;;;;;;5091558;28;20220;-70
2020/12/31 08:58:12;;;;;;;7.73;5.37;;;3.60;99.90;;;;;;5055323;28;20448;-70
2020/12/31 09:00:38;;;;;;;9.50;4.33;;;3.60;99.90;;;;;;5062200;28;20241;-70
2020/12/31 09:03:03;;;;;;;8.17;4.83;;;3.60;99.90;;;;;;5078902;28;20555;-70
2020/12/31 09:05:29;;;;;;;9.90;5.57;;;3.60;99.90;;;;;;5074486;28;20680;-71
2020/12/31 09:08:06;;;;;;;18.83;9.00;;;3.60;99.90;;;;;;5066461;28;20232;-70
2020/12/31 09:10:36;;;;;;;15.23;7.30;;;3.60;99.90;;;;;;5056873;28;20223;-71
2020/12/31 09:13:03;;;;;;;9.20;5.90;;;3.60;99.90;;;;;;5075339;28;20497;-71
2020/12/31 09:15:30;;;;;;;11.17;6.17;;;3.70;99.90;;;;;;5058056;28;20461;-70
2020/12/31 09:17:59;;;;;;;13.60;7.17;;;3.60;99.90;;;;;;5075831;28;20501;-70
2020/12/31 09:20:27;;;;;;;9.87;6.03;;;3.60;99.90;;;;;;5074344;28;20475;-70
2020/12/31 09:23:10;;;;;;;8.87;5.70;;;3.60;99.90;;;;;;5091778;28;20976;-72
2020/12/31 09:25:54;;;;;;;9.70;5.80;;;3.60;99.90;;;;;;5107993;28;20535;-72
2020/12/31 09:28:19;;;;;;;19.40;10.50;;;3.60;99.90;;;;;;5075685;28;20479;-70
2020/12/31 09:30:46;;;;;;;28.23;11.60;;;3.70;99.90;;;;;;5064363;28;20445;-70
2020/12/31 09:33:17;;;;;;;20.03;12.20;;;3.70;99.90;;;;;;5088361;28;20357;-70
2020/12/31 09:35:43;;;;;;;19.77;11.07;;;3.70;99.90;;;;;;5105292;28;20540;-70
2020/12/31 09:38:09;;;;;;;22.77;9.90;;;3.70;99.90;;;;;;5074900;28;20606;-70
2020/12/31 09:40:35;;;;;;;16.50;8.97;;;3.70;99.90;;;;;;5090442;28;21015;-70
2020/12/31 09:43:01;;;;;;;14.90;8.70;;;3.70;99.90;;;;;;5104983;28;20271;-70
2020/12/31 09:45:30;;;;;;;7.73;5.40;;;3.70;99.90;;;;;;5055162;28;20219;-71
2020/12/31 09:48:02;;;;;;;11.40;6.17;;;3.70;99.90;;;;;;5092194;28;20282;-70
2020/12/31 09:50:29;;;;;;;11.60;5.73;;;3.70;99.90;;;;;;5059979;28;20541;-70
2020/12/31 09:52:55;;;;;;;13.00;6.17;;;3.70;99.90;;;;;;5085432;28;20454;-70
2020/12/31 09:55:21;;;;;;;14.20;5.30;;;3.60;99.90;;;;;;5061359;28;20459;-70
2020/12/31 09:57:47;;;;;;;14.37;5.70;;;3.60;99.90;;;;;;5085451;28;20225;-72
2020/12/31 10:00:13;;;;;;;9.47;4.53;;;3.60;99.90;;;;;;5077414;28;20452;-70
2020/12/31 10:02:39;;;;;;;6.93;4.80;;;3.60;99.90;;;;;;5088282;28;20592;-70
2020/12/31 10:05:05;;;;;;;7.30;4.37;;;3.60;99.90;;;;;;5066160;28;20451;-71
2020/12/31 10:07:32;;;;;;;6.13;3.67;;;3.60;99.90;;;;;;5077149;28;20222;-70
2020/12/31 10:09:58;;;;;;;5.87;3.47;;;3.60;99.90;;;;;;5094992;28;20470;-72
2020/12/31 10:12:27;;;;;;;5.63;3.47;;;3.60;99.90;;;;;;5111329;28;20440;-71
2020/12/31 10:14:53;;;;;;;6.00;4.00;;;3.60;99.90;;;;;;5059088;28;20563;-70
2020/12/31 10:17:19;;;;;;;8.00;4.47;;;3.50;99.90;;;;;;5067397;28;20453;-71
2020/12/31 10:19:45;;;;;;;8.37;5.00;;;3.50;99.90;;;;;;5077750;28;20516;-71
2020/12/31 10:22:11;;;;;;;11.83;4.73;;;3.50;99.90;;;;;;5108472;27;20511;-71
2020/12/31 10:24:37;;;;;;;5.10;3.70;;;3.50;99.90;;;;;;5076239;28;20484;-70
2020/12/31 10:27:03;;;;;;;7.37;3.90;;;3.50;99.90;;;;;;5102834;28;20210;-69
2020/12/31 10:29:29;;;;;;;7.37;4.37;;;3.50;99.90;;;;;;5073629;28;20215;-70
2020/12/31 10:31:55;;;;;;;7.13;3.57;;;3.50;99.90;;;;;;5097972;28;20534;-71
2020/12/31 10:34:22;;;;;;;5.23;3.27;;;3.50;99.90;;;;;;5066119;27;20275;-69
2020/12/31 10:36:53;;;;;;;6.13;3.80;;;3.50;99.90;;;;;;5091336;28;21068;-70
2020/12/31 10:39:19;;;;;;;5.37;3.87;;;3.50;99.90;;;;;;5071094;27;20532;-69
2020/12/31 10:41:56;;;;;;;4.83;3.53;;;3.40;99.90;;;;;;5098734;28;21399;-69
2020/12/31 10:44:21;;;;;;;7.83;4.57;;;3.40;99.90;;;;;;5104603;27;20463;-70
2020/12/31 10:46:47;;;;;;;10.00;3.57;;;3.40;99.90;;;;;;5080979;28;20544;-69
2020/12/31 10:49:14;;;;;;;5.47;3.50;;;3.50;99.90;;;;;;5077305;28;20209;-68
2020/12/31 10:51:40;;;;;;;5.10;3.70;;;3.50;99.90;;;;;;5093578;28;20233;-69
2020/12/31 10:54:07;;;;;;;5.60;3.10;;;3.50;99.90;;;;;;5094589;28;20497;-69
2020/12/31 10:56:33;;;;;;;4.43;3.80;;;3.50;99.90;;;;;;5088888;28;20457;-69
2020/12/31 10:58:59;;;;;;;7.60;5.67;;;3.50;99.90;;;;;;5067973;28;20470;-69
2020/12/31 11:01:24;;;;;;;7.87;4.90;;;3.50;99.90;;;;;;5086160;28;20502;-69
2020/12/31 11:03:51;;;;;;;9.10;4.83;;;3.40;99.90;;;;;;5068044;28;20268;-69
2020/12/31 11:06:18;;;;;;;7.83;4.97;;;3.40;99.90;;;;;;5087151;28;20298;-69
2020/12/31 11:08:44;;;;;;;6.20;3.70;;;3.50;99.90;;;;;;5078377;28;20535;-69
2020/12/31 11:11:14;;;;;;;5.97;4.03;;;3.40;99.90;;;;;;5066390;28;20843;-68
2020/12/31 11:13:39;;;;;;;4.90;3.70;;;3.50;99.90;;;;;;5078237;28;22583;-72
2020/12/31 11:16:08;;;;;;;7.83;4.10;;;3.50;99.90;;;;;;5079158;28;20451;-69
2020/12/31 11:18:33;;;;;;;5.07;3.97;;;3.50;99.90;;;;;;5089522;28;20234;-69
2020/12/31 11:20:59;;;;;;;4.83;3.60;;;3.50;99.90;;;;;;5089660;28;20998;-69
2020/12/31 11:23:24;;;;;;;11.57;4.60;;;3.50;99.90;;;;;;5039734;28;20260;-69
2020/12/31 11:25:50;;;;;;;5.73;4.50;;;3.50;99.90;;;;;;5057500;28;20219;-69
2020/12/31 11:28:16;;;;;;;7.60;5.40;;;3.50;99.90;;;;;;5072090;28;20239;-69
2020/12/31 11:30:43;;;;;;;6.13;4.00;;;3.50;99.90;;;;;;5085243;28;20218;-69
2020/12/31 11:33:32;;;;;;;6.80;4.23;;;3.50;99.90;;;;;;5115765;27;20223;-69
2020/12/31 11:35:58;;;;;;;5.87;3.97;;;3.50;99.90;;;;;;5096339;28;20454;-69
2020/12/31 11:38:24;;;;;;;3.87;3.47;;;3.50;99.90;;;;;;5054084;28;20473;-69
2020/12/31 11:40:50;;;;;;;5.63;4.40;;;3.50;99.90;;;;;;5087457;28;20220;-69
2020/12/31 11:43:16;;;;;;;8.73;4.33;;;3.40;99.90;;;;;;5083749;28;20464;-69
2020/12/31 11:45:41;;;;;;;6.30;4.57;;;3.50;99.90;;;;;;5081889;28;20229;-70
2020/12/31 11:48:07;;;;;;;5.27;3.77;;;3.50;99.90;;;;;;5051923;28;20271;-69
2020/12/31 11:50:33;;;;;;;5.20;3.70;;;3.50;99.90;;;;;;5080530;27;20227;-69
2020/12/31 11:52:58;;;;;;;5.13;3.60;;;3.50;99.90;;;;;;5062294;28;20268;-69
2020/12/31 11:55:24;;;;;;;5.60;4.03;;;3.50;99.90;;;;;;5091411;28;20230;-69
2020/12/31 11:57:50;;;;;;;5.33;3.67;;;3.50;99.90;;;;;;5075912;28;20242;-70
2020/12/31 12:00:16;;;;;;;6.33;3.23;;;3.60;99.90;;;;;;5073775;28;20707;-69
2020/12/31 12:02:42;;;;;;;3.37;3.00;;;3.60;99.90;;;;;;5078693;27;20352;-70
2020/12/31 12:05:08;;;;;;;5.70;4.00;;;3.60;99.90;;;;;;5079039;27;20565;-68
2020/12/31 12:07:34;;;;;;;7.50;5.20;;;3.60;99.90;;;;;;5075549;28;20232;-69
2020/12/31 12:09:59;;;;;;;4.77;3.83;;;3.50;99.90;;;;;;5082177;28;20459;-69
2020/12/31 12:12:25;;;;;;;8.87;4.67;;;3.60;99.90;;;;;;5077855;28;20215;-69
2020/12/31 12:14:50;;;;;;;3.97;3.20;;;3.60;99.90;;;;;;5074002;28;20234;-69
2020/12/31 12:17:16;;;;;;;4.20;3.33;;;3.60;99.90;;;;;;5070283;28;20210;-70
2020/12/31 12:19:42;;;;;;;4.37;3.60;;;3.60;99.90;;;;;;5073076;28;20232;-69
2020/12/31 12:22:07;;;;;;;5.33;3.10;;;3.70;99.90;;;;;;5062300;27;20212;-69
2020/12/31 12:24:33;;;;;;;3.53;2.73;;;3.70;99.90;;;;;;5088691;27;20217;-70
2020/12/31 12:26:59;;;;;;;4.53;3.27;;;3.70;99.90;;;;;;5059984;28;20249;-69
2020/12/31 12:29:25;;;;;;;4.43;3.10;;;3.70;99.90;;;;;;5068178;27;20721;-69
2020/12/31 12:31:51;;;;;;;10.00;4.00;;;3.70;99.90;;;;;;5078043;27;20439;-70
2020/12/31 12:34:16;;;;;;;4.63;4.20;;;3.70;99.90;;;;;;5092594;27;20278;-69
2020/12/31 12:36:47;;;;;;;4.10;3.50;;;3.70;99.90;;;;;;5101471;28;20211;-71
2020/12/31 12:39:12;;;;;;;8.63;5.27;;;3.70;99.90;;;;;;5081313;27;20607;-70
2020/12/31 12:41:38;;;;;;;7.60;4.83;;;3.70;99.90;;;;;;5073042;28;20464;-70
2020/12/31 12:44:04;;;;;;;6.07;4.87;;;3.70;99.90;;;;;;5109128;27;20220;-72
2020/12/31 12:46:29;;;;;;;6.73;5.07;;;3.80;99.90;;;;;;5059023;28;20220;-70
2020/12/31 12:48:55;;;;;;;8.07;5.30;;;3.70;99.90;;;;;;5041681;28;20267;-70
2020/12/31 12:51:21;;;;;;;5.17;4.27;;;3.80;99.90;;;;;;5075670;28;20217;-70
2020/12/31 12:53:46;;;;;;;6.63;4.43;;;3.70;99.90;;;;;;5078716;28;20229;-70
2020/12/31 12:56:12;;;;;;;6.27;4.83;;;3.80;99.90;;;;;;5065304;28;20250;-72
2020/12/31 12:58:39;;;;;;;9.40;6.07;;;3.80;99.90;;;;;;5064084;28;20234;-73